sensor_id;sensor_type;location;lat;lon;timestamp;temperature;humidity
32215;DHT22;18708;53.124;23.190;2023-07-08T00:00:50;12.50;99.90
32215;DHT22;18708;53.124;23.190;2023-07-08T00:03:17;12.50;99.90
32215;DHT22;18708;53.124;23.190;2023-07-08T00:05:44;12.50;99.90
32215;DHT22;18708;53.124;23.190;2023-07-08T00:08:17;12.40;99.90
32215;DHT22;18708;53.124;23.190;2023-07-08T00:10:43;12.40;99.90
32215;DHT22;18708;53.124;23.190;2023-07-08T00:13:10;12.30;99.90
32215;DHT22;18708;53.124;23.190;2023-07-08T00:15:36;12.30;99.90
32215;DHT22;18708;53.124;23.190;2023-07-08T00:18:13;12.20;99.90
32215;DHT22;18708;53.124;23.190;2023-07-08T00:20:43;12.20;99.90
32215;DHT22;18708;53.124;23.190;2023-07-08T00:23:10;12.10;99.90
32215;DHT22;18708;53.124;23.190;2023-07-08T00:25:36;12.10;99.90
32215;DHT22;18708;53.124;23.190;2023-07-08T00:28:01;12.10;99.90
32215;DHT22;18708;53.124;23.190;2023-07-08T00:30:31;12.10;99.90
32215;DHT22;18708;53.124;23.190;2023-07-08T00:32:58;12.10;99.90
32215;DHT22;18708;53.124;23.190;2023-07-08T00:35:44;12.00;99.90
32215;DHT22;18708;53.124;23.190;2023-07-08T00:38:27;12.00;99.90
32215;DHT22;18708;53.124;23.190;2023-07-08T00:41:08;11.90;99.90
32215;DHT22;18708;53.124;23.190;2023-07-08T00:43:37;11.90;99.90
32215;DHT22;18708;53.124;23.190;2023-07-08T00:46:18;11.90;99.90
32215;DHT22;18708;53.124;23.190;2023-07-08T00:48:50;11.90;99.90
32215;DHT22;18708;53.124;23.190;2023-07-08T00:51:18;11.80;99.90
32215;DHT22;18708;53.124;23.190;2023-07-08T00:53:44;11.80;99.90
32215;DHT22;18708;53.124;23.190;2023-07-08T00:56:28;11.80;99.90
32215;DHT22;18708;53.124;23.190;2023-07-08T00:59:03;11.70;99.90
32215;DHT22;18708;53.124;23.190;2023-07-08T01:01:29;11.70;99.90
32215;DHT22;18708;53.124;23.190;2023-07-08T01:04:20;11.60;99.90
32215;DHT22;18708;53.124;23.190;2023-07-08T01:06:57;11.50;99.90
32215;DHT22;18708;53.124;23.190;2023-07-08T01:09:31;11.50;99.90
32215;DHT22;18708;53.124;23.190;2023-07-08T01:11:58;11.50;99.90
32215;DHT22;18708;53.124;23.190;2023-07-08T01:14:30;11.40;99.90
32215;DHT22;18708;53.124;23.190;2023-07-08T01:16:58;11.30;99.90
32215;DHT22;18708;53.124;23.190;2023-07-08T01:19:24;11.40;99.90
32215;DHT22;18708;53.124;23.190;2023-07-08T01:24:25;11.40;99.90
32215;DHT22;18708;53.124;23.190;2023-07-08T01:26:51;11.30;99.90
32215;DHT22;18708;53.124;23.190;2023-07-08T01:29:17;11.30;99.90
32215;DHT22;18708;53.124;23.190;2023-07-08T01:31:43;11.20;99.90
32215;DHT22;18708;53.124;23.190;2023-07-08T01:34:15;11.10;99.90
32215;DHT22;18708;53.124;23.190;2023-07-08T01:36:44;11.00;99.90
32215;DHT22;18708;53.124;23.190;2023-07-08T01:39:14;11.00;99.90
32215;DHT22;18708;53.124;23.190;2023-07-08T01:41:40;10.90;99.90
32215;DHT22;18708;53.124;23.190;2023-07-08T01:44:20;10.90;99.90
32215;DHT22;18708;53.124;23.190;2023-07-08T01:46:46;10.90;99.90
32215;DHT22;18708;53.124;23.190;2023-07-08T01:49:12;10.90;99.90
32215;DHT22;18708;53.124;23.190;2023-07-08T01:51:38;10.90;99.90
32215;DHT22;18708;53.124;23.190;2023-07-08T01:54:03;10.90;99.90
32215;DHT22;18708;53.124;23.190;2023-07-08T01:56:29;10.90;99.90
32215;DHT22;18708;53.124;23.190;2023-07-08T01:58:55;10.90;99.90
32215;DHT22;18708;53.124;23.190;2023-07-08T02:01:20;10.90;99.90
32215;DHT22;18708;53.124;23.190;2023-07-08T02:03:46;10.90;99.90
32215;DHT22;18708;53.124;23.190;2023-07-08T02:06:12;10.80;99.90
32215;DHT22;18708;53.124;23.190;2023-07-08T02:08:37;10.80;99.90
32215;DHT22;18708;53.124;23.190;2023-07-08T02:11:03;10.80;99.90
32215;DHT22;18708;53.124;23.190;2023-07-08T02:13:29;10.80;99.90
32215;DHT22;18708;53.124;23.190;2023-07-08T02:15:54;10.80;99.90
32215;DHT22;18708;53.124;23.190;2023-07-08T02:18:20;10.80;99.90
32215;DHT22;18708;53.124;23.190;2023-07-08T02:20:46;10.70;99.90
32215;DHT22;18708;53.124;23.190;2023-07-08T02:23:14;10.70;99.90
32215;DHT22;18708;53.124;23.190;2023-07-08T02:25:39;10.70;99.90
32215;DHT22;18708;53.124;23.190;2023-07-08T02:28:05;10.70;99.90
32215;DHT22;18708;53.124;23.190;2023-07-08T02:30:30;10.70;99.90
32215;DHT22;18708;53.124;23.190;2023-07-08T02:32:56;10.70;99.90
32215;DHT22;18708;53.124;23.190;2023-07-08T02:35:26;10.70;99.90
32215;DHT22;18708;53.124;23.190;2023-07-08T02:37:53;10.70;99.90
32215;DHT22;18708;53.124;23.190;2023-07-08T02:40:19;10.70;99.90
32215;DHT22;18708;53.124;23.190;2023-07-08T02:42:45;10.80;99.90
32215;DHT22;18708;53.124;23.190;2023-07-08T02:45:12;10.80;99.90
32215;DHT22;18708;53.124;23.190;2023-07-08T02:47:38;10.80;99.90
32215;DHT22;18708;53.124;23.190;2023-07-08T02:50:04;10.80;99.90
32215;DHT22;18708;53.124;23.190;2023-07-08T02:52:30;10.70;99.90
32215;DHT22;18708;53.124;23.190;2023-07-08T02:54:56;10.70;99.90
32215;DHT22;18708;53.124;23.190;2023-07-08T02:57:21;10.70;99.90
32215;DHT22;18708;53.124;23.190;2023-07-08T02:59:47;10.70;99.90
32215;DHT22;18708;53.124;23.190;2023-07-08T03:02:13;10.70;99.90
32215;DHT22;18708;53.124;23.190;2023-07-08T03:04:39;10.70;99.90
32215;DHT22;18708;53.124;23.190;2023-07-08T03:07:06;10.80;99.90
32215;DHT22;18708;53.124;23.190;2023-07-08T03:09:40;10.80;99.90
32215;DHT22;18708;53.124;23.190;2023-07-08T03:12:07;10.90;99.90
32215;DHT22;18708;53.124;23.190;2023-07-08T03:14:33;10.90;99.90
32215;DHT22;18708;53.124;23.190;2023-07-08T03:16:59;10.90;99.90
32215;DHT22;18708;53.124;23.190;2023-07-08T03:19:24;10.90;99.90
32215;DHT22;18708;53.124;23.190;2023-07-08T03:21:51;10.90;99.90
32215;DHT22;18708;53.124;23.190;2023-07-08T03:24:17;11.00;99.90
32215;DHT22;18708;53.124;23.190;2023-07-08T03:26:44;11.10;99.90
32215;DHT22;18708;53.124;23.190;2023-07-08T03:29:19;11.20;99.90
32215;DHT22;18708;53.124;23.190;2023-07-08T03:31:45;11.20;99.90
32215;DHT22;18708;53.124;23.190;2023-07-08T03:34:13;11.30;99.90
32215;DHT22;18708;53.124;23.190;2023-07-08T03:36:50;11.30;99.90
32215;DHT22;18708;53.124;23.190;2023-07-08T03:39:20;11.30;99.90
32215;DHT22;18708;53.124;23.190;2023-07-08T03:41:47;11.40;99.90
32215;DHT22;18708;53.124;23.190;2023-07-08T03:44:13;11.60;99.90
32215;DHT22;18708;53.124;23.190;2023-07-08T03:46:41;11.70;99.90
32215;DHT22;18708;53.124;23.190;2023-07-08T03:49:09;12.00;99.90
32215;DHT22;18708;53.124;23.190;2023-07-08T03:51:37;12.00;99.90
32215;DHT22;18708;53.124;23.190;2023-07-08T03:54:04;12.00;99.90
32215;DHT22;18708;53.124;23.190;2023-07-08T03:56:30;12.00;99.90
32215;DHT22;18708;53.124;23.190;2023-07-08T03:58:56;12.10;99.90
32215;DHT22;18708;53.124;23.190;2023-07-08T04:01:23;12.10;99.90
32215;DHT22;18708;53.124;23.190;2023-07-08T04:03:54;12.20;99.90
32215;DHT22;18708;53.124;23.190;2023-07-08T04:06:20;12.50;99.90
32215;DHT22;18708;53.124;23.190;2023-07-08T04:08:46;12.60;99.90
32215;DHT22;18708;53.124;23.190;2023-07-08T04:11:14;12.60;99.90
32215;DHT22;18708;53.124;23.190;2023-07-08T04:13:40;12.90;99.90
32215;DHT22;18708;53.124;23.190;2023-07-08T04:16:06;12.90;99.90
32215;DHT22;18708;53.124;23.190;2023-07-08T04:18:32;13.10;99.90
32215;DHT22;18708;53.124;23.190;2023-07-08T04:20:59;13.30;99.90
32215;DHT22;18708;53.124;23.190;2023-07-08T04:23:25;13.50;99.90
32215;DHT22;18708;53.124;23.190;2023-07-08T04:25:53;13.80;99.90
32215;DHT22;18708;53.124;23.190;2023-07-08T04:28:20;14.30;99.90
32215;DHT22;18708;53.124;23.190;2023-07-08T04:30:47;14.40;99.90
32215;DHT22;18708;53.124;23.190;2023-07-08T04:33:14;14.60;99.90
32215;DHT22;18708;53.124;23.190;2023-07-08T04:35:41;14.50;99.90
32215;DHT22;18708;53.124;23.190;2023-07-08T04:38:23;14.60;99.90
32215;DHT22;18708;53.124;23.190;2023-07-08T04:40:50;14.70;99.90
32215;DHT22;18708;53.124;23.190;2023-07-08T04:43:20;14.90;99.90
32215;DHT22;18708;53.124;23.190;2023-07-08T04:45:50;15.20;99.90
32215;DHT22;18708;53.124;23.190;2023-07-08T04:48:17;15.40;99.90
32215;DHT22;18708;53.124;23.190;2023-07-08T04:50:46;15.40;99.90
32215;DHT22;18708;53.124;23.190;2023-07-08T04:53:13;15.50;99.90
32215;DHT22;18708;53.124;23.190;2023-07-08T04:55:41;15.50;99.90
32215;DHT22;18708;53.124;23.190;2023-07-08T04:58:08;15.60;99.90
32215;DHT22;18708;53.124;23.190;2023-07-08T05:00:33;15.60;99.90
32215;DHT22;18708;53.124;23.190;2023-07-08T05:02:59;15.70;99.90
32215;DHT22;18708;53.124;23.190;2023-07-08T05:05:25;15.80;99.90
32215;DHT22;18708;53.124;23.190;2023-07-08T05:07:51;16.10;99.90
32215;DHT22;18708;53.124;23.190;2023-07-08T05:10:17;16.20;99.90
32215;DHT22;18708;53.124;23.190;2023-07-08T05:12:43;16.40;99.90
32215;DHT22;18708;53.124;23.190;2023-07-08T05:15:09;16.60;99.90
32215;DHT22;18708;53.124;23.190;2023-07-08T05:17:37;16.90;99.90
32215;DHT22;18708;53.124;23.190;2023-07-08T05:20:04;17.20;99.90
32215;DHT22;18708;53.124;23.190;2023-07-08T05:22:29;17.50;99.90
32215;DHT22;18708;53.124;23.190;2023-07-08T05:24:55;17.80;99.90
32215;DHT22;18708;53.124;23.190;2023-07-08T05:27:22;18.20;99.90
32215;DHT22;18708;53.124;23.190;2023-07-08T05:29:48;18.50;99.90
32215;DHT22;18708;53.124;23.190;2023-07-08T05:32:14;18.80;99.90
32215;DHT22;18708;53.124;23.190;2023-07-08T05:34:40;19.10;99.90
32215;DHT22;18708;53.124;23.190;2023-07-08T05:37:06;19.30;99.90
32215;DHT22;18708;53.124;23.190;2023-07-08T05:39:32;19.50;99.90
32215;DHT22;18708;53.124;23.190;2023-07-08T05:41:57;19.60;99.90
32215;DHT22;18708;53.124;23.190;2023-07-08T05:44:23;19.80;99.90
32215;DHT22;18708;53.124;23.190;2023-07-08T05:46:50;20.00;99.90
32215;DHT22;18708;53.124;23.190;2023-07-08T05:49:16;20.20;99.90
32215;DHT22;18708;53.124;23.190;2023-07-08T05:51:43;20.30;99.90
32215;DHT22;18708;53.124;23.190;2023-07-08T05:54:09;20.50;99.90
32215;DHT22;18708;53.124;23.190;2023-07-08T05:56:35;20.50;99.90
32215;DHT22;18708;53.124;23.190;2023-07-08T05:59:01;20.70;99.90
32215;DHT22;18708;53.124;23.190;2023-07-08T06:01:26;20.80;99.90
32215;DHT22;18708;53.124;23.190;2023-07-08T06:03:52;20.90;99.90
32215;DHT22;18708;53.124;23.190;2023-07-08T06:06:18;21.00;99.90
32215;DHT22;18708;53.124;23.190;2023-07-08T06:08:44;21.10;99.90
32215;DHT22;18708;53.124;23.190;2023-07-08T06:11:09;21.20;99.50
32215;DHT22;18708;53.124;23.190;2023-07-08T06:13:35;21.30;99.40
32215;DHT22;18708;53.124;23.190;2023-07-08T06:16:01;21.50;98.40
32215;DHT22;18708;53.124;23.190;2023-07-08T06:18:26;21.60;96.70
32215;DHT22;18708;53.124;23.190;2023-07-08T06:20:53;21.90;94.90
32215;DHT22;18708;53.124;23.190;2023-07-08T06:23:20;22.00;95.30
32215;DHT22;18708;53.124;23.190;2023-07-08T06:25:45;22.10;92.70
32215;DHT22;18708;53.124;23.190;2023-07-08T06:28:11;22.20;92.50
32215;DHT22;18708;53.124;23.190;2023-07-08T06:30:37;22.30;91.20
32215;DHT22;18708;53.124;23.190;2023-07-08T06:33:03;22.50;91.30
32215;DHT22;18708;53.124;23.190;2023-07-08T06:35:29;22.80;90.60
32215;DHT22;18708;53.124;23.190;2023-07-08T06:37:54;23.20;90.00
32215;DHT22;18708;53.124;23.190;2023-07-08T06:40:20;23.50;90.30
32215;DHT22;18708;53.124;23.190;2023-07-08T06:42:46;23.80;85.70
32215;DHT22;18708;53.124;23.190;2023-07-08T06:45:12;24.20;83.70
32215;DHT22;18708;53.124;23.190;2023-07-08T06:47:37;24.20;79.60
32215;DHT22;18708;53.124;23.190;2023-07-08T06:50:03;24.60;80.80
32215;DHT22;18708;53.124;23.190;2023-07-08T06:52:29;24.80;75.20
32215;DHT22;18708;53.124;23.190;2023-07-08T06:55:01;24.90;81.30
32215;DHT22;18708;53.124;23.190;2023-07-08T06:57:27;25.10;73.60
32215;DHT22;18708;53.124;23.190;2023-07-08T06:59:53;25.60;77.30
32215;DHT22;18708;53.124;23.190;2023-07-08T07:02:18;26.00;76.10
32215;DHT22;18708;53.124;23.190;2023-07-08T07:04:45;26.60;73.30
32215;DHT22;18708;53.124;23.190;2023-07-08T07:07:11;26.70;72.30
32215;DHT22;18708;53.124;23.190;2023-07-08T07:09:37;26.90;68.60
32215;DHT22;18708;53.124;23.190;2023-07-08T07:12:05;26.90;64.40
32215;DHT22;18708;53.124;23.190;2023-07-08T07:14:32;27.30;66.60
32215;DHT22;18708;53.124;23.190;2023-07-08T07:16:58;27.20;68.60
32215;DHT22;18708;53.124;23.190;2023-07-08T07:19:24;27.40;63.00
32215;DHT22;18708;53.124;23.190;2023-07-08T07:21:50;27.40;61.70
32215;DHT22;18708;53.124;23.190;2023-07-08T07:24:17;27.40;62.10
32215;DHT22;18708;53.124;23.190;2023-07-08T07:26:43;27.30;59.80
32215;DHT22;18708;53.124;23.190;2023-07-08T07:29:09;27.50;60.30
32215;DHT22;18708;53.124;23.190;2023-07-08T07:31:35;27.50;60.30
32215;DHT22;18708;53.124;23.190;2023-07-08T07:34:01;27.70;64.10
32215;DHT22;18708;53.124;23.190;2023-07-08T07:36:28;28.00;62.50
32215;DHT22;18708;53.124;23.190;2023-07-08T07:38:54;27.80;58.50
32215;DHT22;18708;53.124;23.190;2023-07-08T07:41:20;28.10;59.30
32215;DHT22;18708;53.124;23.190;2023-07-08T07:43:46;27.90;57.30
32215;DHT22;18708;53.124;23.190;2023-07-08T07:46:13;27.60;57.50
32215;DHT22;18708;53.124;23.190;2023-07-08T07:48:39;27.50;57.70
32215;DHT22;18708;53.124;23.190;2023-07-08T07:51:05;27.50;60.50
32215;DHT22;18708;53.124;23.190;2023-07-08T07:53:31;27.90;58.50
32215;DHT22;18708;53.124;23.190;2023-07-08T07:55:58;27.90;57.90
32215;DHT22;18708;53.124;23.190;2023-07-08T07:58:25;28.10;60.00
32215;DHT22;18708;53.124;23.190;2023-07-08T08:00:51;27.80;57.10
32215;DHT22;18708;53.124;23.190;2023-07-08T08:03:16;27.00;57.50
32215;DHT22;18708;53.124;23.190;2023-07-08T08:05:43;26.20;58.50
32215;DHT22;18708;53.124;23.190;2023-07-08T08:08:09;26.50;63.70
32215;DHT22;18708;53.124;23.190;2023-07-08T08:10:35;27.10;58.00
32215;DHT22;18708;53.124;23.190;2023-07-08T08:13:01;27.00;56.60
32215;DHT22;18708;53.124;23.190;2023-07-08T08:15:27;27.20;58.30
32215;DHT22;18708;53.124;23.190;2023-07-08T08:17:53;27.40;60.00
32215;DHT22;18708;53.124;23.190;2023-07-08T08:20:20;27.60;55.10
32215;DHT22;18708;53.124;23.190;2023-07-08T08:22:47;27.20;54.60
32215;DHT22;18708;53.124;23.190;2023-07-08T08:25:15;26.90;59.70
32215;DHT22;18708;53.124;23.190;2023-07-08T08:27:41;26.80;60.20
32215;DHT22;18708;53.124;23.190;2023-07-08T08:30:07;27.10;61.00
32215;DHT22;18708;53.124;23.190;2023-07-08T08:32:33;27.90;61.10
32215;DHT22;18708;53.124;23.190;2023-07-08T08:34:59;28.20;56.80
32215;DHT22;18708;53.124;23.190;2023-07-08T08:37:25;28.00;56.80
32215;DHT22;18708;53.124;23.190;2023-07-08T08:39:50;28.60;57.20
32215;DHT22;18708;53.124;23.190;2023-07-08T08:44:48;28.00;55.20
32215;DHT22;18708;53.124;23.190;2023-07-08T08:47:44;27.40;55.60
32215;DHT22;18708;53.124;23.190;2023-07-08T08:50:29;27.20;58.00
32215;DHT22;18708;53.124;23.190;2023-07-08T08:52:57;27.00;57.40
32215;DHT22;18708;53.124;23.190;2023-07-08T08:55:24;26.90;59.00
32215;DHT22;18708;53.124;23.190;2023-07-08T08:58:23;26.90;58.20
32215;DHT22;18708;53.124;23.190;2023-07-08T09:01:04;27.00;57.20
32215;DHT22;18708;53.124;23.190;2023-07-08T09:03:52;26.90;56.30
32215;DHT22;18708;53.124;23.190;2023-07-08T09:06:31;27.50;58.20
32215;DHT22;18708;53.124;23.190;2023-07-08T09:11:56;27.40;55.80
32215;DHT22;18708;53.124;23.190;2023-07-08T09:14:28;26.90;56.60
32215;DHT22;18708;53.124;23.190;2023-07-08T09:19:42;27.20;59.00
32215;DHT22;18708;53.124;23.190;2023-07-08T09:22:16;27.30;55.10
32215;DHT22;18708;53.124;23.190;2023-07-08T09:24:53;27.50;57.20
32215;DHT22;18708;53.124;23.190;2023-07-08T09:27:20;27.80;58.80
32215;DHT22;18708;53.124;23.190;2023-07-08T09:29:46;28.40;54.80
32215;DHT22;18708;53.124;23.190;2023-07-08T09:32:19;28.20;53.60
32215;DHT22;18708;53.124;23.190;2023-07-08T09:37:29;28.20;54.40
32215;DHT22;18708;53.124;23.190;2023-07-08T09:39:57;28.40;53.90
32215;DHT22;18708;53.124;23.190;2023-07-08T09:42:29;28.90;52.70
32215;DHT22;18708;53.124;23.190;2023-07-08T09:45:00;29.00;56.10
32215;DHT22;18708;53.124;23.190;2023-07-08T09:47:29;29.50;54.20
32215;DHT22;18708;53.124;23.190;2023-07-08T09:49:59;29.90;51.20
32215;DHT22;18708;53.124;23.190;2023-07-08T09:52:25;30.00;49.80
32215;DHT22;18708;53.124;23.190;2023-07-08T09:54:51;29.80;51.50
32215;DHT22;18708;53.124;23.190;2023-07-08T09:57:31;29.20;56.40
32215;DHT22;18708;53.124;23.190;2023-07-08T10:00:00;29.70;50.10
32215;DHT22;18708;53.124;23.190;2023-07-08T10:02:52;29.90;56.00
32215;DHT22;18708;53.124;23.190;2023-07-08T10:05:32;30.00;52.50
32215;DHT22;18708;53.124;23.190;2023-07-08T10:07:59;29.50;49.90
32215;DHT22;18708;53.124;23.190;2023-07-08T10:10:35;28.90;50.50
32215;DHT22;18708;53.124;23.190;2023-07-08T10:15:46;27.60;52.00
32215;DHT22;18708;53.124;23.190;2023-07-08T10:18:17;27.00;54.50
32215;DHT22;18708;53.124;23.190;2023-07-08T10:26:38;27.20;53.10
32215;DHT22;18708;53.124;23.190;2023-07-08T10:29:23;27.30;54.20
32215;DHT22;18708;53.124;23.190;2023-07-08T10:34:40;27.30;53.50
32215;DHT22;18708;53.124;23.190;2023-07-08T10:48:44;27.50;52.20
32215;DHT22;18708;53.124;23.190;2023-07-08T10:56:12;26.50;53.60
32215;DHT22;18708;53.124;23.190;2023-07-08T11:06:00;27.20;52.00
32215;DHT22;18708;53.124;23.190;2023-07-08T11:08:28;27.90;49.70
32215;DHT22;18708;53.124;23.190;2023-07-08T11:13:41;28.90;48.60
32215;DHT22;18708;53.124;23.190;2023-07-08T11:16:19;28.90;54.00
32215;DHT22;18708;53.124;23.190;2023-07-08T11:18:48;29.40;48.00
32215;DHT22;18708;53.124;23.190;2023-07-08T11:29:32;29.70;53.80
32215;DHT22;18708;53.124;23.190;2023-07-08T11:31:54;29.80;52.80
32215;DHT22;18708;53.124;23.190;2023-07-08T11:34:20;29.10;47.60
32215;DHT22;18708;53.124;23.190;2023-07-08T11:36:47;29.00;47.70
32215;DHT22;18708;53.124;23.190;2023-07-08T11:39:25;29.40;49.70
32215;DHT22;18708;53.124;23.190;2023-07-08T11:41:52;30.30;50.20
32215;DHT22;18708;53.124;23.190;2023-07-08T11:44:20;30.80;55.40
32215;DHT22;18708;53.124;23.190;2023-07-08T11:46:55;31.00;51.30
32215;DHT22;18708;53.124;23.190;2023-07-08T11:49:20;30.30;46.70
32215;DHT22;18708;53.124;23.190;2023-07-08T11:51:46;29.50;47.00
32215;DHT22;18708;53.124;23.190;2023-07-08T11:54:19;28.60;48.80
32215;DHT22;18708;53.124;23.190;2023-07-08T11:59:30;27.70;50.40
32215;DHT22;18708;53.124;23.190;2023-07-08T12:02:04;27.30;51.10
32215;DHT22;18708;53.124;23.190;2023-07-08T12:04:35;26.90;50.90
32215;DHT22;18708;53.124;23.190;2023-07-08T12:09:44;27.20;54.20
32215;DHT22;18708;53.124;23.190;2023-07-08T12:12:16;27.20;50.20
32215;DHT22;18708;53.124;23.190;2023-07-08T12:14:43;27.20;51.50
32215;DHT22;18708;53.124;23.190;2023-07-08T12:17:12;28.30;53.00
32215;DHT22;18708;53.124;23.190;2023-07-08T12:19:38;28.40;48.40
32215;DHT22;18708;53.124;23.190;2023-07-08T12:22:09;29.00;49.00
32215;DHT22;18708;53.124;23.190;2023-07-08T12:24:35;29.50;47.10
32215;DHT22;18708;53.124;23.190;2023-07-08T12:27:02;29.40;48.30
32215;DHT22;18708;53.124;23.190;2023-07-08T12:29:27;29.20;47.10
32215;DHT22;18708;53.124;23.190;2023-07-08T12:31:53;29.90;48.80
32215;DHT22;18708;53.124;23.190;2023-07-08T12:34:19;29.50;50.90
32215;DHT22;18708;53.124;23.190;2023-07-08T12:36:46;29.40;47.20
32215;DHT22;18708;53.124;23.190;2023-07-08T12:39:13;28.60;47.10
32215;DHT22;18708;53.124;23.190;2023-07-08T12:41:43;28.00;48.20
32215;DHT22;18708;53.124;23.190;2023-07-08T12:44:19;27.50;49.00
32215;DHT22;18708;53.124;23.190;2023-07-08T12:46:46;27.20;50.20
32215;DHT22;18708;53.124;23.190;2023-07-08T12:49:13;26.90;51.80
32215;DHT22;18708;53.124;23.190;2023-07-08T12:51:41;26.90;52.90
32215;DHT22;18708;53.124;23.190;2023-07-08T12:54:08;27.20;50.80
32215;DHT22;18708;53.124;23.190;2023-07-08T12:56:34;27.80;54.70
32215;DHT22;18708;53.124;23.190;2023-07-08T12:59:00;28.20;49.90
32215;DHT22;18708;53.124;23.190;2023-07-08T13:01:26;28.20;49.60
32215;DHT22;18708;53.124;23.190;2023-07-08T13:03:55;28.10;51.00
32215;DHT22;18708;53.124;23.190;2023-07-08T13:06:24;28.20;48.60
32215;DHT22;18708;53.124;23.190;2023-07-08T13:08:50;28.10;50.60
32215;DHT22;18708;53.124;23.190;2023-07-08T13:11:16;27.90;48.10
32215;DHT22;18708;53.124;23.190;2023-07-08T13:13:51;28.40;49.30
32215;DHT22;18708;53.124;23.190;2023-07-08T13:16:18;28.20;48.90
32215;DHT22;18708;53.124;23.190;2023-07-08T13:18:44;27.90;50.20
32215;DHT22;18708;53.124;23.190;2023-07-08T13:21:11;28.00;51.70
32215;DHT22;18708;53.124;23.190;2023-07-08T13:23:37;28.20;47.90
32215;DHT22;18708;53.124;23.190;2023-07-08T13:26:14;27.90;50.00
32215;DHT22;18708;53.124;23.190;2023-07-08T13:28:40;27.70;49.40
32215;DHT22;18708;53.124;23.190;2023-07-08T13:31:16;27.80;49.40
32215;DHT22;18708;53.124;23.190;2023-07-08T13:33:49;27.80;50.80
32215;DHT22;18708;53.124;23.190;2023-07-08T13:36:16;27.70;49.40
32215;DHT22;18708;53.124;23.190;2023-07-08T13:38:42;27.70;47.80
32215;DHT22;18708;53.124;23.190;2023-07-08T13:41:08;27.70;50.20
32215;DHT22;18708;53.124;23.190;2023-07-08T13:43:35;27.80;48.20
32215;DHT22;18708;53.124;23.190;2023-07-08T13:46:01;27.80;49.40
32215;DHT22;18708;53.124;23.190;2023-07-08T13:48:35;28.10;49.30
32215;DHT22;18708;53.124;23.190;2023-07-08T13:51:16;28.10;47.70
32215;DHT22;18708;53.124;23.190;2023-07-08T13:53:46;27.90;47.60
32215;DHT22;18708;53.124;23.190;2023-07-08T13:58:48;27.30;49.40
32215;DHT22;18708;53.124;23.190;2023-07-08T14:01:15;27.20;50.50
32215;DHT22;18708;53.124;23.190;2023-07-08T14:03:41;27.10;48.70
32215;DHT22;18708;53.124;23.190;2023-07-08T14:06:11;27.30;49.10
32215;DHT22;18708;53.124;23.190;2023-07-08T14:08:37;27.30;49.80
32215;DHT22;18708;53.124;23.190;2023-07-08T14:11:03;27.40;48.50
32215;DHT22;18708;53.124;23.190;2023-07-08T14:13:28;27.20;47.90
32215;DHT22;18708;53.124;23.190;2023-07-08T14:15:54;27.10;48.80
32215;DHT22;18708;53.124;23.190;2023-07-08T14:18:20;27.00;50.10
32215;DHT22;18708;53.124;23.190;2023-07-08T14:20:46;27.20;50.00
32215;DHT22;18708;53.124;23.190;2023-07-08T14:23:11;27.40;49.60
32215;DHT22;18708;53.124;23.190;2023-07-08T14:25:38;27.50;51.20
32215;DHT22;18708;53.124;23.190;2023-07-08T14:28:03;27.60;49.10
32215;DHT22;18708;53.124;23.190;2023-07-08T14:30:31;27.50;49.30
32215;DHT22;18708;53.124;23.190;2023-07-08T14:32:57;27.40;49.80
32215;DHT22;18708;53.124;23.190;2023-07-08T14:35:24;27.20;49.90
32215;DHT22;18708;53.124;23.190;2023-07-08T14:37:50;27.20;51.10
32215;DHT22;18708;53.124;23.190;2023-07-08T14:40:21;27.20;50.70
32215;DHT22;18708;53.124;23.190;2023-07-08T14:42:47;27.10;52.10
32215;DHT22;18708;53.124;23.190;2023-07-08T14:45:12;26.90;53.10
32215;DHT22;18708;53.124;23.190;2023-07-08T14:47:38;26.90;53.50
32215;DHT22;18708;53.124;23.190;2023-07-08T14:50:11;27.00;51.50
32215;DHT22;18708;53.124;23.190;2023-07-08T14:52:37;27.10;52.50
32215;DHT22;18708;53.124;23.190;2023-07-08T14:55:03;27.20;53.50
32215;DHT22;18708;53.124;23.190;2023-07-08T14:57:30;26.90;52.00
32215;DHT22;18708;53.124;23.190;2023-07-08T14:59:58;26.70;52.20
32215;DHT22;18708;53.124;23.190;2023-07-08T15:02:23;26.80;51.70
32215;DHT22;18708;53.124;23.190;2023-07-08T15:04:49;27.10;51.30
32215;DHT22;18708;53.124;23.190;2023-07-08T15:07:18;27.40;49.60
32215;DHT22;18708;53.124;23.190;2023-07-08T15:09:44;27.30;51.90
32215;DHT22;18708;53.124;23.190;2023-07-08T15:12:10;27.20;52.00
32215;DHT22;18708;53.124;23.190;2023-07-08T15:14:37;27.10;49.90
32215;DHT22;18708;53.124;23.190;2023-07-08T15:17:04;27.00;51.80
32215;DHT22;18708;53.124;23.190;2023-07-08T15:19:33;27.00;51.90
32215;DHT22;18708;53.124;23.190;2023-07-08T15:22:00;26.80;53.80
32215;DHT22;18708;53.124;23.190;2023-07-08T15:24:26;26.70;53.10
32215;DHT22;18708;53.124;23.190;2023-07-08T15:26:51;26.40;53.40
32215;DHT22;18708;53.124;23.190;2023-07-08T15:29:21;26.20;55.00
32215;DHT22;18708;53.124;23.190;2023-07-08T15:31:47;26.20;54.30
32215;DHT22;18708;53.124;23.190;2023-07-08T15:34:14;26.40;54.20
32215;DHT22;18708;53.124;23.190;2023-07-08T15:36:40;26.60;54.50
32215;DHT22;18708;53.124;23.190;2023-07-08T15:39:05;26.70;54.50
32215;DHT22;18708;53.124;23.190;2023-07-08T15:41:31;26.60;54.50
32215;DHT22;18708;53.124;23.190;2023-07-08T15:43:58;26.60;53.60
32215;DHT22;18708;53.124;23.190;2023-07-08T15:46:26;26.50;53.40
32215;DHT22;18708;53.124;23.190;2023-07-08T15:48:52;26.40;53.50
32215;DHT22;18708;53.124;23.190;2023-07-08T15:51:18;26.20;54.20
32215;DHT22;18708;53.124;23.190;2023-07-08T15:53:44;26.20;55.20
32215;DHT22;18708;53.124;23.190;2023-07-08T15:56:13;25.90;54.00
32215;DHT22;18708;53.124;23.190;2023-07-08T15:58:40;26.20;54.60
32215;DHT22;18708;53.124;23.190;2023-07-08T16:01:07;26.20;55.20
32215;DHT22;18708;53.124;23.190;2023-07-08T16:03:37;26.20;53.90
32215;DHT22;18708;53.124;23.190;2023-07-08T16:06:03;26.20;54.80
32215;DHT22;18708;53.124;23.190;2023-07-08T16:08:28;26.50;52.40
32215;DHT22;18708;53.124;23.190;2023-07-08T16:10:58;26.40;53.70
32215;DHT22;18708;53.124;23.190;2023-07-08T16:13:29;26.10;53.90
32215;DHT22;18708;53.124;23.190;2023-07-08T16:15:55;25.80;54.30
32215;DHT22;18708;53.124;23.190;2023-07-08T16:18:21;26.30;52.80
32215;DHT22;18708;53.124;23.190;2023-07-08T16:20:47;26.40;53.80
32215;DHT22;18708;53.124;23.190;2023-07-08T16:23:13;26.10;55.00
32215;DHT22;18708;53.124;23.190;2023-07-08T16:25:39;25.80;54.70
32215;DHT22;18708;53.124;23.190;2023-07-08T16:28:08;25.90;54.90